sensor_id;sensor_type;location;lat;lon;timestamp;P1;durP1;ratioP1;P2;durP2;ratioP2
18194;SDS011;9223;50.988;3.162;2023-02-28T00:01:34;5.95;;;4.57;;
18194;SDS011;9223;50.988;3.162;2023-02-28T00:07:39;5.18;;;4.43;;
18194;SDS011;9223;50.988;3.162;2023-02-28T00:13:44;6.65;;;4.57;;
18194;SDS011;9223;50.988;3.162;2023-02-28T00:19:48;6.40;;;4.97;;
18194;SDS011;9223;50.988;3.162;2023-02-28T00:25:53;8.95;;;5.38;;
18194;SDS011;9223;50.988;3.162;2023-02-28T00:31:56;7.38;;;4.47;;
18194;SDS011;9223;50.988;3.162;2023-02-28T00:38:00;5.90;;;4.80;;
18194;SDS011;9223;50.988;3.162;2023-02-28T00:44:05;5.85;;;4.97;;
18194;SDS011;9223;50.988;3.162;2023-02-28T00:50:09;5.68;;;5.07;;
18194;SDS011;9223;50.988;3.162;2023-02-28T00:56:12;7.30;;;5.15;;
18194;SDS011;9223;50.988;3.162;2023-02-28T01:02:17;6.63;;;4.80;;
18194;SDS011;9223;50.988;3.162;2023-02-28T01:08:21;7.57;;;5.47;;
18194;SDS011;9223;50.988;3.162;2023-02-28T01:14:24;6.90;;;5.07;;
18194;SDS011;9223;50.988;3.162;2023-02-28T01:20:30;6.20;;;5.15;;
18194;SDS011;9223;50.988;3.162;2023-02-28T01:26:33;4.78;;;4.35;;
18194;SDS011;9223;50.988;3.162;2023-02-28T01:32:37;6.63;;;5.35;;
18194;SDS011;9223;50.988;3.162;2023-02-28T01:38:41;5.78;;;4.90;;
18194;SDS011;9223;50.988;3.162;2023-02-28T01:44:55;5.47;;;4.78;;
18194;SDS011;9223;50.988;3.162;2023-02-28T01:51:00;7.80;;;5.57;;
18194;SDS011;9223;50.988;3.162;2023-02-28T01:57:08;6.10;;;5.18;;
18194;SDS011;9223;50.988;3.162;2023-02-28T02:03:13;10.48;;;5.65;;
18194;SDS011;9223;50.988;3.162;2023-02-28T02:09:20;6.93;;;5.03;;
18194;SDS011;9223;50.988;3.162;2023-02-28T02:15:26;7.72;;;5.70;;
18194;SDS011;9223;50.988;3.162;2023-02-28T02:21:42;7.43;;;5.40;;
18194;SDS011;9223;50.988;3.162;2023-02-28T02:27:59;9.73;;;6.15;;
18194;SDS011;9223;50.988;3.162;2023-02-28T02:34:10;6.90;;;5.30;;
18194;SDS011;9223;50.988;3.162;2023-02-28T02:40:20;6.72;;;5.25;;
18194;SDS011;9223;50.988;3.162;2023-02-28T02:46:26;7.28;;;6.28;;
18194;SDS011;9223;50.988;3.162;2023-02-28T02:52:34;7.68;;;5.82;;
18194;SDS011;9223;50.988;3.162;2023-02-28T02:58:40;9.02;;;6.65;;
18194;SDS011;9223;50.988;3.162;2023-02-28T03:04:45;9.85;;;7.13;;
18194;SDS011;9223;50.988;3.162;2023-02-28T03:10:51;11.65;;;7.25;;
18194;SDS011;9223;50.988;3.162;2023-02-28T03:23:17;8.03;;;7.03;;
18194;SDS011;9223;50.988;3.162;2023-02-28T03:29:25;12.63;;;7.83;;
18194;SDS011;9223;50.988;3.162;2023-02-28T03:35:32;9.30;;;6.72;;
18194;SDS011;9223;50.988;3.162;2023-02-28T03:41:38;9.20;;;7.45;;
18194;SDS011;9223;50.988;3.162;2023-02-28T03:47:46;8.63;;;7.10;;
18194;SDS011;9223;50.988;3.162;2023-02-28T03:53:52;10.38;;;7.30;;
18194;SDS011;9223;50.988;3.162;2023-02-28T03:59:59;9.73;;;7.50;;
18194;SDS011;9223;50.988;3.162;2023-02-28T04:06:07;10.63;;;7.97;;
18194;SDS011;9223;50.988;3.162;2023-02-28T04:12:11;10.77;;;7.90;;
18194;SDS011;9223;50.988;3.162;2023-02-28T04:18:14;10.70;;;7.95;;
18194;SDS011;9223;50.988;3.162;2023-02-28T04:24:20;10.30;;;7.43;;
18194;SDS011;9223;50.988;3.162;2023-02-28T04:30:24;13.68;;;8.75;;
18194;SDS011;9223;50.988;3.162;2023-02-28T04:36:27;11.43;;;8.13;;
18194;SDS011;9223;50.988;3.162;2023-02-28T04:42:32;11.82;;;8.60;;
18194;SDS011;9223;50.988;3.162;2023-02-28T04:48:37;9.77;;;7.95;;
18194;SDS011;9223;50.988;3.162;2023-02-28T04:54:41;11.75;;;7.60;;
18194;SDS011;9223;50.988;3.162;2023-02-28T05:00:46;11.20;;;7.95;;
18194;SDS011;9223;50.988;3.162;2023-02-28T05:06:49;10.38;;;7.88;;
18194;SDS011;9223;50.988;3.162;2023-02-28T05:12:53;14.77;;;7.95;;
18194;SDS011;9223;50.988;3.162;2023-02-28T05:18:58;10.93;;;7.88;;
18194;SDS011;9223;50.988;3.162;2023-02-28T05:25:02;9.93;;;7.57;;
18194;SDS011;9223;50.988;3.162;2023-02-28T05:31:05;9.05;;;7.55;;
18194;SDS011;9223;50.988;3.162;2023-02-28T05:37:12;12.63;;;8.45;;
18194;SDS011;9223;50.988;3.162;2023-02-28T05:43:16;13.07;;;7.68;;
18194;SDS011;9223;50.988;3.162;2023-02-28T05:49:19;11.50;;;7.53;;
18194;SDS011;9223;50.988;3.162;2023-02-28T05:55:24;12.30;;;7.78;;
18194;SDS011;9223;50.988;3.162;2023-02-28T06:01:32;11.60;;;8.27;;
18194;SDS011;9223;50.988;3.162;2023-02-28T06:07:35;12.38;;;8.68;;
18194;SDS011;9223;50.988;3.162;2023-02-28T06:13:40;12.63;;;8.32;;
18194;SDS011;9223;50.988;3.162;2023-02-28T06:19:43;12.10;;;8.23;;
18194;SDS011;9223;50.988;3.162;2023-02-28T06:25:47;11.02;;;7.45;;
18194;SDS011;9223;50.988;3.162;2023-02-28T06:31:52;9.20;;;6.63;;
18194;SDS011;9223;50.988;3.162;2023-02-28T06:37:56;8.73;;;6.07;;
18194;SDS011;9223;50.988;3.162;2023-02-28T06:43:59;7.68;;;5.30;;
18194;SDS011;9223;50.988;3.162;2023-02-28T06:50:04;8.43;;;5.65;;
18194;SDS011;9223;50.988;3.162;2023-02-28T06:56:09;8.13;;;6.75;;
18194;SDS011;9223;50.988;3.162;2023-02-28T07:02:13;7.20;;;6.07;;
18194;SDS011;9223;50.988;3.162;2023-02-28T07:08:17;7.07;;;6.07;;
18194;SDS011;9223;50.988;3.162;2023-02-28T07:14:21;11.27;;;7.60;;
18194;SDS011;9223;50.988;3.162;2023-02-28T07:20:25;8.98;;;7.28;;
18194;SDS011;9223;50.988;3.162;2023-02-28T07:26:30;9.15;;;6.97;;
18194;SDS011;9223;50.988;3.162;2023-02-28T07:32:35;10.82;;;7.07;;
18194;SDS011;9223;50.988;3.162;2023-02-28T07:38:39;8.82;;;6.13;;
18194;SDS011;9223;50.988;3.162;2023-02-28T07:44:44;7.65;;;5.75;;
18194;SDS011;9223;50.988;3.162;2023-02-28T07:50:54;9.57;;;5.45;;
18194;SDS011;9223;50.988;3.162;2023-02-28T07:56:57;7.43;;;5.30;;
18194;SDS011;9223;50.988;3.162;2023-02-28T08:03:09;7.82;;;5.88;;
18194;SDS011;9223;50.988;3.162;2023-02-28T08:09:14;9.63;;;6.75;;
18194;SDS011;9223;50.988;3.162;2023-02-28T08:15:18;9.00;;;6.55;;
18194;SDS011;9223;50.988;3.162;2023-02-28T08:21:22;6.45;;;5.22;;
18194;SDS011;9223;50.988;3.162;2023-02-28T08:27:26;6.50;;;4.95;;
18194;SDS011;9223;50.988;3.162;2023-02-28T08:33:30;9.35;;;4.63;;
18194;SDS011;9223;50.988;3.162;2023-02-28T08:39:35;9.73;;;4.50;;
18194;SDS011;9223;50.988;3.162;2023-02-28T08:45:39;5.97;;;4.28;;
18194;SDS011;9223;50.988;3.162;2023-02-28T08:51:42;5.82;;;3.90;;
18194;SDS011;9223;50.988;3.162;2023-02-28T08:57:47;8.50;;;3.33;;
18194;SDS011;9223;50.988;3.162;2023-02-28T09:03:51;6.53;;;3.47;;
18194;SDS011;9223;50.988;3.162;2023-02-28T09:09:58;4.25;;;3.15;;
18194;SDS011;9223;50.988;3.162;2023-02-28T09:16:04;5.32;;;3.08;;
18194;SDS011;9223;50.988;3.162;2023-02-28T09:22:08;4.20;;;3.10;;
18194;SDS011;9223;50.988;3.162;2023-02-28T09:28:12;3.80;;;2.63;;
18194;SDS011;9223;50.988;3.162;2023-02-28T09:34:18;3.00;;;2.70;;
18194;SDS011;9223;50.988;3.162;2023-02-28T09:40:22;3.58;;;2.30;;
18194;SDS011;9223;50.988;3.162;2023-02-28T09:46:28;2.63;;;2.42;;
18194;SDS011;9223;50.988;3.162;2023-02-28T09:52:34;3.13;;;2.30;;
18194;SDS011;9223;50.988;3.162;2023-02-28T09:58:40;3.50;;;2.40;;
18194;SDS011;9223;50.988;3.162;2023-02-28T10:04:46;8.63;;;2.58;;
18194;SDS011;9223;50.988;3.162;2023-02-28T10:10:55;5.80;;;2.80;;
18194;SDS011;9223;50.988;3.162;2023-02-28T10:17:01;6.28;;;2.80;;
18194;SDS011;9223;50.988;3.162;2023-02-28T10:23:09;7.63;;;3.75;;
18194;SDS011;9223;50.988;3.162;2023-02-28T10:29:14;6.15;;;2.90;;
18194;SDS011;9223;50.988;3.162;2023-02-28T10:35:19;8.85;;;3.30;;
18194;SDS011;9223;50.988;3.162;2023-02-28T10:41:27;7.25;;;3.83;;
18194;SDS011;9223;50.988;3.162;2023-02-28T10:47:32;5.95;;;3.30;;
18194;SDS011;9223;50.988;3.162;2023-02-28T10:53:47;3.58;;;3.17;;
18194;SDS011;9223;50.988;3.162;2023-02-28T11:00:06;4.22;;;3.45;;
18194;SDS011;9223;50.988;3.162;2023-02-28T11:06:16;4.03;;;3.63;;
18194;SDS011;9223;50.988;3.162;2023-02-28T11:12:21;5.32;;;3.40;;
18194;SDS011;9223;50.988;3.162;2023-02-28T11:18:27;4.32;;;3.38;;
18194;SDS011;9223;50.988;3.162;2023-02-28T11:24:33;3.38;;;3.03;;
18194;SDS011;9223;50.988;3.162;2023-02-28T11:30:39;5.03;;;3.25;;
18194;SDS011;9223;50.988;3.162;2023-02-28T11:36:43;3.70;;;3.40;;
18194;SDS011;9223;50.988;3.162;2023-02-28T11:42:52;5.00;;;3.65;;
18194;SDS011;9223;50.988;3.162;2023-02-28T11:48:58;5.72;;;3.30;;
18194;SDS011;9223;50.988;3.162;2023-02-28T11:55:08;4.35;;;2.95;;
18194;SDS011;9223;50.988;3.162;2023-02-28T12:01:17;5.03;;;2.80;;
18194;SDS011;9223;50.988;3.162;2023-02-28T12:07:25;2.50;;;2.20;;
18194;SDS011;9223;50.988;3.162;2023-02-28T12:13:36;4.05;;;2.28;;
18194;SDS011;9223;50.988;3.162;2023-02-28T12:19:45;3.88;;;2.50;;
18194;SDS011;9223;50.988;3.162;2023-02-28T12:32:13;2.63;;;2.42;;
18194;SDS011;9223;50.988;3.162;2023-02-28T12:38:19;8.35;;;2.97;;
18194;SDS011;9223;50.988;3.162;2023-02-28T12:44:26;3.58;;;3.28;;
18194;SDS011;9223;50.988;3.162;2023-02-28T12:50:34;5.80;;;3.10;;
18194;SDS011;9223;50.988;3.162;2023-02-28T12:56:41;4.00;;;3.15;;
18194;SDS011;9223;50.988;3.162;2023-02-28T13:09:08;3.97;;;2.88;;
18194;SDS011;9223;50.988;3.162;2023-02-28T13:15:16;6.55;;;3.97;;
18194;SDS011;9223;50.988;3.162;2023-02-28T13:21:23;3.97;;;3.42;;
18194;SDS011;9223;50.988;3.162;2023-02-28T13:27:37;3.58;;;3.25;;
18194;SDS011;9223;50.988;3.162;2023-02-28T13:40:26;4.07;;;3.20;;
18194;SDS011;9223;50.988;3.162;2023-02-28T13:46:30;5.15;;;3.25;;
18194;SDS011;9223;50.988;3.162;2023-02-28T13:52:34;4.70;;;2.92;;
18194;SDS011;9223;50.988;3.162;2023-02-28T13:58:53;3.97;;;3.33;;
18194;SDS011;9223;50.988;3.162;2023-02-28T14:04:59;3.47;;;3.05;;
18194;SDS011;9223;50.988;3.162;2023-02-28T14:11:05;3.88;;;2.30;;
18194;SDS011;9223;50.988;3.162;2023-02-28T14:17:13;2.50;;;2.30;;
18194;SDS011;9223;50.988;3.162;2023-02-28T14:23:21;3.03;;;2.28;;
18194;SDS011;9223;50.988;3.162;2023-02-28T14:35:50;3.60;;;2.60;;
18194;SDS011;9223;50.988;3.162;2023-02-28T14:41:57;3.25;;;2.47;;
18194;SDS011;9223;50.988;3.162;2023-02-28T14:48:04;5.13;;;2.25;;
18194;SDS011;9223;50.988;3.162;2023-02-28T14:54:15;4.00;;;2.70;;
18194;SDS011;9223;50.988;3.162;2023-02-28T15:00:21;4.68;;;3.20;;
18194;SDS011;9223;50.988;3.162;2023-02-28T15:06:25;2.65;;;2.45;;
18194;SDS011;9223;50.988;3.162;2023-02-28T15:12:32;6.10;;;2.50;;
18194;SDS011;9223;50.988;3.162;2023-02-28T15:18:39;4.60;;;2.90;;
18194;SDS011;9223;50.988;3.162;2023-02-28T15:24:45;4.93;;;2.67;;
18194;SDS011;9223;50.988;3.162;2023-02-28T15:30:52;2.42;;;2.22;;
18194;SDS011;9223;50.988;3.162;2023-02-28T15:36:56;3.03;;;2.50;;
18194;SDS011;9223;50.988;3.162;2023-02-28T15:43:03;2.85;;;2.60;;
18194;SDS011;9223;50.988;3.162;2023-02-28T15:49:13;5.07;;;2.88;;
18194;SDS011;9223;50.988;3.162;2023-02-28T15:55:21;3.40;;;2.67;;
18194;SDS011;9223;50.988;3.162;2023-02-28T16:01:25;3.47;;;2.88;;
18194;SDS011;9223;50.988;3.162;2023-02-28T16:07:31;3.15;;;2.80;;
18194;SDS011;9223;50.988;3.162;2023-02-28T16:13:35;4.13;;;2.60;;
18194;SDS011;9223;50.988;3.162;2023-02-28T16:19:39;3.13;;;2.80;;
18194;SDS011;9223;50.988;3.162;2023-02-28T16:25:45;3.72;;;3.25;;
18194;SDS011;9223;50.988;3.162;2023-02-28T16:31:48;3.08;;;2.83;;
18194;SDS011;9223;50.988;3.162;2023-02-28T16:37:52;3.30;;;3.00;;
18194;SDS011;9223;50.988;3.162;2023-02-28T16:43:57;3.30;;;3.00;;
18194;SDS011;9223;50.988;3.162;2023-02-28T16:50:04;4.05;;;2.90;;
18194;SDS011;9223;50.988;3.162;2023-02-28T16:56:11;4.38;;;3.30;;
18194;SDS011;9223;50.988;3.162;2023-02-28T17:02:19;10.10;;;3.60;;
18194;SDS011;9223;50.988;3.162;2023-02-28T17:08:23;3.88;;;3.50;;
18194;SDS011;9223;50.988;3.162;2023-02-28T17:14:26;4.13;;;3.33;;
18194;SDS011;9223;50.988;3.162;2023-02-28T17:20:31;4.18;;;3.60;;
18194;SDS011;9223;50.988;3.162;2023-02-28T17:26:35;5.93;;;3.80;;
18194;SDS011;9223;50.988;3.162;2023-02-28T17:32:38;7.55;;;3.75;;
18194;SDS011;9223;50.988;3.162;2023-02-28T17:38:43;3.75;;;3.42;;
18194;SDS011;9223;50.988;3.162;2023-02-28T17:44:47;5.32;;;3.65;;
18194;SDS011;9223;50.988;3.162;2023-02-28T17:50:51;4.95;;;4.18;;
18194;SDS011;9223;50.988;3.162;2023-02-28T17:56:56;7.60;;;6.72;;
18194;SDS011;9223;50.988;3.162;2023-02-28T18:03:00;7.45;;;6.63;;
18194;SDS011;9223;50.988;3.162;2023-02-28T18:09:05;6.25;;;5.00;;
18194;SDS011;9223;50.988;3.162;2023-02-28T18:15:10;7.32;;;4.88;;
18194;SDS011;9223;50.988;3.162;2023-02-28T18:21:14;7.80;;;5.53;;
18194;SDS011;9223;50.988;3.162;2023-02-28T18:27:18;5.78;;;4.40;;
18194;SDS011;9223;50.988;3.162;2023-02-28T18:33:23;6.03;;;5.05;;
18194;SDS011;9223;50.988;3.162;2023-02-28T18:39:27;6.82;;;5.90;;
18194;SDS011;9223;50.988;3.162;2023-02-28T18:45:30;5.95;;;4.72;;
18194;SDS011;9223;50.988;3.162;2023-02-28T18:51:35;6.78;;;5.20;;
18194;SDS011;9223;50.988;3.162;2023-02-28T18:57:39;8.20;;;5.65;;
18194;SDS011;9223;50.988;3.162;2023-02-28T19:03:42;9.15;;;5.88;;
18194;SDS011;9223;50.988;3.162;2023-02-28T19:09:47;7.38;;;5.78;;
18194;SDS011;9223;50.988;3.162;2023-02-28T19:15:54;7.07;;;4.97;;
18194;SDS011;9223;50.988;3.162;2023-02-28T19:22:03;5.78;;;5.03;;
18194;SDS011;9223;50.988;3.162;2023-02-28T19:28:08;7.85;;;5.63;;
18194;SDS011;9223;50.988;3.162;2023-02-28T19:34:11;9.23;;;6.72;;
18194;SDS011;9223;50.988;3.162;2023-02-28T19:40:15;12.30;;;9.00;;
18194;SDS011;9223;50.988;3.162;2023-02-28T19:46:20;19.63;;;10.85;;
18194;SDS011;9223;50.988;3.162;2023-02-28T19:52:24;19.92;;;11.60;;
18194;SDS011;9223;50.988;3.162;2023-02-28T19:58:27;15.85;;;9.30;;
18194;SDS011;9223;50.988;3.162;2023-02-28T20:04:32;10.23;;;7.78;;
18194;SDS011;9223;50.988;3.162;2023-02-28T20:10:36;12.77;;;9.25;;
18194;SDS011;9223;50.988;3.162;2023-02-28T20:16:40;12.20;;;8.85;;
18194;SDS011;9223;50.988;3.162;2023-02-28T20:22:45;9.60;;;7.78;;
18194;SDS011;9223;50.988;3.162;2023-02-28T20:28:49;10.55;;;9.02;;
18194;SDS011;9223;50.988;3.162;2023-02-28T20:34:52;7.63;;;6.72;;
18194;SDS011;9223;50.988;3.162;2023-02-28T20:40:58;10.02;;;6.75;;
18194;SDS011;9223;50.988;3.162;2023-02-28T20:47:02;10.60;;;8.13;;
18194;SDS011;9223;50.988;3.162;2023-02-28T20:53:05;14.20;;;9.90;;
18194;SDS011;9223;50.988;3.162;2023-02-28T20:59:10;11.05;;;7.90;;
18194;SDS011;9223;50.988;3.162;2023-02-28T21:05:14;10.88;;;8.15;;
18194;SDS011;9223;50.988;3.162;2023-02-28T21:11:18;14.00;;;8.00;;
18194;SDS011;9223;50.988;3.162;2023-02-28T21:17:24;9.23;;;7.78;;
18194;SDS011;9223;50.988;3.162;2023-02-28T21:23:27;9.32;;;7.05;;
18194;SDS011;9223;50.988;3.162;2023-02-28T21:29:31;10.18;;;7.60;;
18194;SDS011;9223;50.988;3.162;2023-02-28T21:35:36;8.82;;;7.15;;
18194;SDS011;9223;50.988;3.162;2023-02-28T21:41:40;10.10;;;7.63;;
18194;SDS011;9223;50.988;3.162;2023-02-28T21:47:44;9.73;;;7.47;;
18194;SDS011;9223;50.988;3.162;2023-02-28T21:53:49;9.45;;;7.70;;
18194;SDS011;9223;50.988;3.162;2023-02-28T21:59:54;10.55;;;7.55;;
18194;SDS011;9223;50.988;3.162;2023-02-28T22:05:58;9.55;;;7.82;;
18194;SDS011;9223;50.988;3.162;2023-02-28T22:12:03;9.70;;;7.25;;
18194;SDS011;9223;50.988;3.162;2023-02-28T22:18:08;8.50;;;7.00;;
18194;SDS011;9223;50.988;3.162;2023-02-28T22:24:12;9.80;;;6.80;;
18194;SDS011;9223;50.988;3.162;2023-02-28T22:30:19;8.60;;;7.10;;
18194;SDS011;9223;50.988;3.162;2023-02-28T22:36:23;9.95;;;7.55;;
18194;SDS011;9223;50.988;3.162;2023-02-28T22:42:27;9.95;;;6.75;;
18194;SDS011;9223;50.988;3.162;2023-02-28T22:48:31;11.38;;;7.70;;
18194;SDS011;9223;50.988;3.162;2023-02-28T22:54:35;9.37;;;6.83;;
18194;SDS011;9223;50.988;3.162;2023-02-28T23:00:39;9.63;;;7.45;;
18194;SDS011;9223;50.988;3.162;2023-02-28T23:06:44;9.63;;;7.23;;
18194;SDS011;9223;50.988;3.162;2023-02-28T23:12:47;7.50;;;6.27;;
18194;SDS011;9223;50.988;3.162;2023-02-28T23:18:55;9.30;;;7.03;;
18194;SDS011;9223;50.988;3.162;2023-02-28T23:25:00;11.95;;;7.65;;
18194;SDS011;9223;50.988;3.162;2023-02-28T23:31:03;10.90;;;6.47;;
18194;SDS011;9223;50.988;3.162;2023-02-28T23:37:06;8.05;;;6.30;;
18194;SDS011;9223;50.988;3.162;2023-02-28T23:43:11;8.90;;;6.38;;
18194;SDS011;9223;50.988;3.162;2023-02-28T23:49:15;7.43;;;6.23;;
18194;SDS011;9223;50.988;3.162;2023-02-28T23:55:20;8.25;;;6.15;;
